This is the latest recevied weather packets stored in our database for station/object W3BRL. If no packets are shown the sender has not sent any weather packets the latest 10 day(s).
| Time | Temp. | Humidity | Pressure | Rain* | Wind** | Luminosity | Snow |
|---|---|---|---|---|---|---|---|
| 1777654009 | 12.22° C | 51% | 1009 hPa | 0 mm | - | 265 W/m² | - |
| 1777653706 | 12.22° C | 51% | 1009 hPa | 0 mm | - | 270 W/m² | - |
| 1777653402 | 12.22° C | 51% | 1009.1 hPa | 0 mm | - | 251 W/m² | - |
| 1777653099 | 12.22° C | 51% | 1009.1 hPa | 0 mm | - | 276 W/m² | - |
| 1777652795 | 12.22° C | 52% | 1009.4 hPa | 0 mm | - | 217 W/m² | - |
| 1777652492 | 12.22° C | 53% | 1009.6 hPa | 0 mm | - | 197 W/m² | - |
| 1777652189 | 12.22° C | 52% | 1009.3 hPa | 0 mm | - | 248 W/m² | - |
| 1777651886 | 12.22° C | 52% | 1009.5 hPa | 0 mm | - | 228 W/m² | - |
| 1777651583 | 12.22° C | 52% | 1009.5 hPa | 0 mm | - | 354 W/m² | - |
| 1777651280 | 11.67° C | 52% | 1009.4 hPa | 0 mm | - | 441 W/m² | - |
| 1777650976 | 11.67° C | 52% | 1009.6 hPa | 0 mm | - | 240 W/m² | - |
| 1777650674 | 12.22° C | 50% | 1009.6 hPa | 0 mm | - | 270 W/m² | - |
| 1777650371 | 12.22° C | 51% | 1009.7 hPa | 0 mm | - | 341 W/m² | - |
| 1777650068 | 12.78° C | 49% | 1009.6 hPa | 0 mm | - | 352 W/m² | - |
| 1777649765 | 13.33° C | 49% | 1009.6 hPa | 0 mm | - | 389 W/m² | - |
| 1777649462 | 12.78° C | 51% | 1010 hPa | 0 mm | - | 496 W/m² | - |
| 1777649158 | 12.22° C | 50% | 1010 hPa | 0 mm | - | 776 W/m² | - |
| 1777648856 | 12.22° C | 52% | 1010.3 hPa | 0 mm | - | 467 W/m² | - |
| 1777648552 | 12.22° C | 51% | 1010.2 hPa | 0 mm | - | 385 W/m² | - |
| 1777648250 | 12.22° C | 50% | 1010.2 hPa | 0 mm | - | 430 W/m² | - |
| 1777647950 | 12.22° C | 50% | 1010.2 hPa | 0 mm | - | 682 W/m² | - |
| 1777647648 | 12.22° C | 51% | 1010.1 hPa | 0 mm | - | 883 W/m² | - |
| 1777647343 | 11.67° C | 58% | 1010.3 hPa | 0 mm | - | 950 W/m² | - |
| 1777647042 | 11.11° C | 59% | 1010.5 hPa | 0 mm | - | 315 W/m² | - |
| 1777646737 | 11.11° C | 58% | 1010.2 hPa | 0 mm | - | 357 W/m² | - |
* Rain latest hour (hover to see other rain measurements)
** Current wind speed in m/s (hover to see current wind gust speed)